createdAt,value
2023-03-12T00:01:21.543Z,99564.42
2023-03-12T00:06:27.549Z,99564.70
2023-03-12T00:11:33.686Z,99563.44
2023-03-12T00:16:39.318Z,99569.66
2023-03-12T00:21:44.839Z,99558.27
2023-03-12T00:26:50.472Z,99561.03
2023-03-12T00:31:56.063Z,99553.84
2023-03-12T00:37:01.621Z,99550.39
2023-03-12T00:42:07.909Z,99544.02
2023-03-12T00:47:13.874Z,99542.43
2023-03-12T00:52:19.459Z,99543.27
2023-03-12T00:57:25.485Z,99542.33
2023-03-12T01:02:31.086Z,99533.73
2023-03-12T01:07:37.097Z,99535.48
2023-03-12T01:12:42.695Z,99530.75
2023-03-12T01:17:48.264Z,99526.64
2023-03-12T01:22:55.004Z,99523.94
2023-03-12T01:28:00.602Z,99521.01
2023-03-12T01:33:06.338Z,99519.21
2023-03-12T01:38:14.701Z,99512.63
2023-03-12T01:43:29.967Z,99501.59
2023-03-12T01:48:40.121Z,99498.59
2023-03-12T01:53:49.683Z,99491.67
2023-03-12T01:58:58.847Z,99490.52
2023-03-12T02:04:05.764Z,99499.09
2023-03-12T02:09:12.740Z,99504.08
2023-03-12T02:14:18.539Z,99499.70
2023-03-12T02:19:34.107Z,99496.35
2023-03-12T02:24:46.531Z,99504.56
2023-03-12T02:29:52.532Z,99503.20
2023-03-12T02:34:59.787Z,99502.52
2023-03-12T02:40:13.274Z,99507.65
2023-03-12T02:45:19.977Z,99507.66
2023-03-12T02:50:25.595Z,99498.62
2023-03-12T02:55:31.308Z,99501.54
2023-03-12T03:00:37.846Z,99509.77
2023-03-12T03:05:43.742Z,99512.19
2023-03-12T03:10:52.756Z,99519.90
2023-03-12T03:15:59.885Z,99517.00
2023-03-12T03:21:09.096Z,99528.43
2023-03-12T03:26:16.619Z,99535.80
2023-03-12T03:31:22.764Z,99547.92
2023-03-12T03:36:29.157Z,99550.33
2023-03-12T03:41:41.678Z,99556.84
2023-03-12T03:46:47.983Z,99566.95
2023-03-12T03:51:54.014Z,99561.17
2023-03-12T03:57:08.303Z,99560.33
2023-03-12T04:02:13.840Z,99569.55
2023-03-12T04:07:21.326Z,99574.68
2023-03-12T04:12:28.090Z,99583.23
2023-03-12T04:17:33.866Z,99588.88
2023-03-12T04:22:40.324Z,99590.92
2023-03-12T04:27:45.931Z,99589.41
2023-03-12T04:32:51.775Z,99591.48
2023-03-12T04:37:57.574Z,99586.36
2023-03-12T04:43:03.659Z,99582.25
2023-03-12T04:48:09.289Z,99577.48
2023-03-12T04:53:15.076Z,99573.56
2023-03-12T04:58:22.349Z,99571.86
2023-03-12T05:05:31.012Z,99579.23
2023-03-12T05:10:36.782Z,99580.23
2023-03-12T05:15:42.374Z,99582.30
2023-03-12T05:20:47.983Z,99586.08
2023-03-12T05:25:53.953Z,99585.40
2023-03-12T05:31:01.391Z,99586.41
2023-03-12T05:36:09.391Z,99592.77
2023-03-12T05:41:21.117Z,99598.58
2023-03-12T05:46:28.542Z,99603.89
2023-03-12T05:51:34.328Z,99604.41
2023-03-12T05:56:40.837Z,99607.84
2023-03-12T06:01:46.693Z,99611.98
2023-03-12T06:06:52.949Z,99625.48
2023-03-12T06:11:58.481Z,99635.57
2023-03-12T06:17:04.608Z,99639.86
2023-03-12T06:22:10.312Z,99644.68
2023-03-12T06:27:16.528Z,99643.33
2023-03-12T06:32:22.129Z,99638.56
2023-03-12T06:37:28.274Z,99650.90
2023-03-12T06:42:33.534Z,99661.36
2023-03-12T06:47:38.957Z,99669.23
2023-03-12T06:52:44.386Z,99674.37
2023-03-12T06:57:50.087Z,99679.68
2023-03-12T07:02:55.450Z,99685.84
2023-03-12T07:08:01.343Z,99690.64
2023-03-12T07:13:07.642Z,99697.48
2023-03-12T07:18:13.916Z,99697.58
2023-03-12T07:23:20.083Z,99698.90
2023-03-12T07:28:25.702Z,99698.41
2023-03-12T07:33:31.660Z,99700.28
2023-03-12T07:38:37.529Z,99696.42
2023-03-12T07:43:43.373Z,99705.42
2023-03-12T07:48:48.933Z,99723.20
2023-03-12T07:53:54.952Z,99727.48
2023-03-12T07:59:00.760Z,99723.73
2023-03-12T08:04:06.967Z,99730.99
2023-03-12T08:09:13.170Z,99734.77
2023-03-12T08:14:19.288Z,99740.20
2023-03-12T08:19:26.233Z,99743.23
2023-03-12T08:24:47.660Z,99752.36
2023-03-12T08:29:53.802Z,99752.23
2023-03-12T08:34:59.584Z,99757.45
2023-03-12T08:40:13.132Z,99779.81
2023-03-12T08:45:20.142Z,99782.73
2023-03-12T08:50:29.385Z,99783.91
2023-03-12T08:55:35.116Z,99780.20
2023-03-12T09:00:40.928Z,99780.61
2023-03-12T09:05:47.630Z,99787.09
2023-03-12T09:10:53.640Z,99793.44
2023-03-12T09:16:04.121Z,99791.86
2023-03-12T09:21:09.794Z,99791.45
2023-03-12T09:26:18.535Z,99788.89
2023-03-12T09:31:24.567Z,99800.96
2023-03-12T09:36:31.712Z,99802.26
2023-03-12T09:41:41.339Z,99805.88
2023-03-12T09:46:51.407Z,99818.00
2023-03-12T09:52:02.566Z,99831.24
2023-03-12T09:57:22.860Z,99843.95
2023-03-12T10:02:53.530Z,99846.11
2023-03-12T10:08:17.387Z,99847.72
2023-03-12T10:13:52.886Z,99852.85
2023-03-12T10:19:10.697Z,99867.85
2023-03-12T10:24:31.668Z,99870.45
2023-03-12T10:29:39.613Z,99866.77
2023-03-12T10:34:49.483Z,99862.56
2023-03-12T10:39:56.366Z,99866.39
2023-03-12T10:45:21.440Z,99865.92
2023-03-12T10:50:41.949Z,99864.13
2023-03-12T10:56:14.126Z,99870.75
2023-03-12T11:01:24.439Z,99879.86
2023-03-12T11:06:31.025Z,99873.35
2023-03-12T11:11:37.842Z,99877.97
2023-03-12T11:16:43.653Z,99888.44
2023-03-12T11:21:59.355Z,99903.77
2023-03-12T11:27:32.397Z,99901.07
2023-03-12T11:32:41.734Z,99896.16
2023-03-12T11:37:59.773Z,99898.69
2023-03-12T11:43:29.252Z,99908.67
2023-03-12T11:48:52.506Z,99915.23
2023-03-12T11:54:19.439Z,99911.94
2023-03-12T11:59:39.137Z,99915.52
2023-03-12T12:05:01.868Z,99919.95
2023-03-12T12:10:19.613Z,99926.38
2023-03-12T12:15:34.560Z,99920.71
2023-03-12T12:20:48.615Z,99928.29
2023-03-12T12:26:07.240Z,99933.11
2023-03-12T12:31:30.368Z,99932.52
2023-03-12T12:36:37.774Z,99939.99
2023-03-12T12:41:51.459Z,99953.77
2023-03-12T12:47:01.435Z,99962.86
2023-03-12T12:52:12.926Z,99966.45
2023-03-12T12:57:18.838Z,99971.86
2023-03-12T13:02:29.497Z,99975.55
2023-03-12T13:07:35.341Z,99987.83
2023-03-12T13:12:52.028Z,99987.84
2023-03-12T13:18:20.498Z,99994.70
2023-03-12T13:23:38.177Z,99997.29
2023-03-12T13:29:11.982Z,100000.71
2023-03-12T13:34:51.770Z,99999.42
2023-03-12T13:40:02.012Z,100006.86
2023-03-12T13:45:25.652Z,100010.91
2023-03-12T13:50:32.741Z,100013.67
2023-03-12T13:55:49.441Z,100012.31
2023-03-12T14:00:57.693Z,100009.53
2023-03-12T14:06:12.505Z,100011.00
2023-03-12T14:11:42.761Z,100027.15
2023-03-12T14:16:51.883Z,100030.98
2023-03-12T14:22:01.746Z,100030.48
2023-03-12T14:27:14.288Z,100028.45
2023-03-12T14:32:23.916Z,100027.60
2023-03-12T14:37:38.280Z,100037.12
2023-03-12T14:42:43.786Z,100039.55
2023-03-12T14:47:52.743Z,100044.71
2023-03-12T14:53:14.624Z,100052.22
2023-03-12T14:58:21.233Z,100057.02
2023-03-12T15:03:28.976Z,100065.98
2023-03-12T15:08:39.842Z,100078.54
2023-03-12T15:13:47.363Z,100077.35
2023-03-12T15:18:53.923Z,100084.03
2023-03-12T15:23:59.502Z,100093.54
2023-03-12T15:29:16.890Z,100103.32
2023-03-12T15:34:34.437Z,100107.71
2023-03-12T15:39:40.573Z,100119.11
2023-03-12T15:44:49.471Z,100119.48
2023-03-12T15:49:57.947Z,100116.06
2023-03-12T15:55:26.664Z,100119.33
2023-03-12T16:00:43.389Z,100123.45
2023-03-12T16:05:50.594Z,100129.31
2023-03-12T16:10:57.077Z,100125.17
2023-03-12T16:16:02.477Z,100133.09
2023-03-12T16:21:08.854Z,100133.95
2023-03-12T16:26:15.605Z,100136.00
2023-03-12T16:31:21.002Z,100136.85
2023-03-12T16:36:28.031Z,100135.29
2023-03-12T16:41:33.877Z,100143.84
2023-03-12T16:46:39.482Z,100146.74
2023-03-12T16:51:45.066Z,100152.02
2023-03-12T16:56:50.956Z,100155.58
2023-03-12T17:01:56.564Z,100161.33
2023-03-12T17:07:02.015Z,100167.05
2023-03-12T17:12:15.618Z,100166.26
2023-03-12T17:17:23.264Z,100167.50
2023-03-12T17:22:28.789Z,100173.05
2023-03-12T17:27:34.700Z,100176.92
2023-03-12T17:32:40.379Z,100186.78
2023-03-12T17:37:48.512Z,100190.17
2023-03-12T17:42:54.741Z,100197.03
2023-03-12T17:48:00.415Z,100200.64
2023-03-12T17:53:05.949Z,100203.38
2023-03-12T17:58:11.377Z,100195.65
2023-03-12T18:03:17.070Z,100194.13
2023-03-12T18:08:23.100Z,100201.12
2023-03-12T18:13:28.565Z,100210.64
2023-03-12T18:18:34.782Z,100220.50
2023-03-12T18:23:42.687Z,100228.59
2023-03-12T18:28:49.287Z,100228.61
2023-03-12T18:33:54.813Z,100233.38
2023-03-12T18:39:04.511Z,100238.99
2023-03-12T18:44:10.321Z,100238.31
2023-03-12T18:49:16.250Z,100242.17
2023-03-12T18:54:24.584Z,100238.03
2023-03-12T18:59:32.306Z,100239.54
2023-03-12T19:04:38.032Z,100235.93
2023-03-12T19:09:44.111Z,100230.69
2023-03-12T19:14:49.918Z,100228.20
2023-03-12T19:19:55.761Z,100228.52
2023-03-12T19:25:01.315Z,100225.36
2023-03-12T19:30:08.883Z,100224.15
2023-03-12T19:35:15.628Z,100228.91
2023-03-12T19:40:21.234Z,100236.20
2023-03-12T19:45:26.843Z,100240.46
2023-03-12T19:50:32.199Z,100247.09
2023-03-12T19:55:37.630Z,100253.55
2023-03-12T20:00:43.657Z,100256.88
2023-03-12T20:05:50.573Z,100264.30
2023-03-12T20:11:02.899Z,100264.13
2023-03-12T20:16:11.436Z,100269.25
2023-03-12T20:21:17.241Z,100267.80
2023-03-12T20:26:22.910Z,100266.17
2023-03-12T20:31:28.408Z,100261.24
2023-03-12T20:36:33.947Z,100257.66
2023-03-12T20:41:39.335Z,100250.11
2023-03-12T20:46:46.244Z,100246.61
2023-03-12T20:51:51.618Z,100244.49
2023-03-12T20:56:57.050Z,100243.75
2023-03-12T21:02:02.577Z,100242.28
2023-03-12T21:07:08.240Z,100240.85
2023-03-12T21:12:14.347Z,100236.23
2023-03-12T21:17:19.822Z,100225.27
2023-03-12T21:22:28.733Z,100217.99
2023-03-12T21:27:47.933Z,100214.66
2023-03-12T21:32:55.785Z,100218.13
2023-03-12T21:38:02.615Z,100218.73
2023-03-12T21:43:08.128Z,100218.65
2023-03-12T21:48:13.922Z,100215.50
2023-03-12T21:53:23.768Z,100215.92
2023-03-12T21:58:30.832Z,100210.31
2023-03-12T22:03:37.334Z,100205.47
2023-03-12T22:08:43.777Z,100205.11
2023-03-12T22:13:49.298Z,100197.69
2023-03-12T22:18:54.954Z,100193.61
2023-03-12T22:24:01.952Z,100192.33
2023-03-12T22:29:08.059Z,100195.56
2023-03-12T22:34:13.417Z,100196.19
2023-03-12T22:39:20.551Z,100195.39
2023-03-12T22:44:26.439Z,100197.30
2023-03-12T22:49:31.876Z,100181.60
2023-03-12T22:54:37.576Z,100178.52
2023-03-12T22:59:43.183Z,100174.95
2023-03-12T23:04:48.668Z,100179.48
2023-03-12T23:09:54.109Z,100170.42
2023-03-12T23:14:59.764Z,100173.80
2023-03-12T23:20:08.088Z,100163.96
2023-03-12T23:25:13.845Z,100159.57
2023-03-12T23:30:19.626Z,100159.94
2023-03-12T23:35:25.364Z,100146.27
2023-03-12T23:40:30.865Z,100126.42
2023-03-12T23:45:36.651Z,100128.99
2023-03-12T23:50:42.160Z,100137.35
2023-03-12T23:55:57.169Z,100125.42
